Time;durP1;ratioP1;P1;durP2;ratioP2;P2;SDS_P1;SDS_P2;PMS_P1;PMS_P2;Temp;Humidity;BMP_temperature;BMP_pressure;BME280_temperature;BME280_humidity;BME280_pressure;Samples;Min_cycle;Max_cycle;Signal;HPM_P1;HPM_P2
2023/04/06 00:00:37;;;;;;;0.00;0.00;;;1.50;97.10;;;;;;5091284;28;20218;-64
2023/04/06 00:03:03;;;;;;;0.00;0.00;;;1.50;97.30;;;;;;5077020;28;20623;-64
2023/04/06 00:05:30;;;;;;;0.00;0.00;;;1.50;97.40;;;;;;5071215;28;20241;-64
2023/04/06 00:07:58;;;;;;;0.00;0.00;;;1.50;97.50;;;;;;5053602;28;20498;-64
2023/04/06 00:10:25;;;;;;;0.00;0.00;;;1.50;97.60;;;;;;5071376;28;20722;-63
2023/04/06 00:12:50;;;;;;;0.10;0.10;;;1.50;97.60;;;;;;5071004;28;20188;-62
2023/04/06 00:15:16;;;;;;;0.00;0.00;;;1.50;97.70;;;;;;5071009;28;20169;-63
2023/04/06 00:17:41;;;;;;;0.00;0.00;;;1.40;97.60;;;;;;5070961;28;20255;-63
2023/04/06 00:20:08;;;;;;;0.00;0.00;;;1.40;97.60;;;;;;5057987;28;20234;-64
2023/04/06 00:22:33;;;;;;;0.00;0.00;;;1.30;97.70;;;;;;5090908;28;20195;-62
2023/04/06 00:24:59;;;;;;;0.00;0.00;;;1.30;97.70;;;;;;5091165;28;20670;-62
2023/04/06 00:27:25;;;;;;;0.00;0.00;;;1.20;97.60;;;;;;5090576;28;20278;-62
2023/04/06 00:29:50;;;;;;;0.05;0.05;;;1.20;97.50;;;;;;5090698;28;20176;-62
2023/04/06 00:32:15;;;;;;;0.32;0.30;;;1.10;97.50;;;;;;5090693;28;20175;-62
2023/04/06 00:34:41;;;;;;;0.08;0.08;;;1.10;97.60;;;;;;5090179;28;20534;-61
2023/04/06 00:37:07;;;;;;;0.00;0.00;;;1.10;97.60;;;;;;5091071;28;20202;-63
2023/04/06 00:39:32;;;;;;;0.25;0.25;;;1.10;97.70;;;;;;5089886;28;20750;-62
2023/04/06 00:41:58;;;;;;;0.00;0.00;;;1.00;97.70;;;;;;5090663;28;20254;-62
2023/04/06 00:44:24;;;;;;;0.00;0.00;;;1.00;97.80;;;;;;5072498;28;20715;-62
2023/04/06 00:46:50;;;;;;;0.00;0.00;;;1.00;98.00;;;;;;5090685;28;20210;-62
2023/04/06 00:49:15;;;;;;;0.00;0.00;;;1.00;98.20;;;;;;5092419;28;20208;-62
2023/04/06 00:51:41;;;;;;;0.00;0.00;;;1.00;98.50;;;;;;5095191;28;20180;-63
2023/04/06 00:54:07;;;;;;;0.00;0.00;;;0.90;98.60;;;;;;5095165;28;20176;-63
2023/04/06 00:56:32;;;;;;;0.00;0.00;;;0.90;98.60;;;;;;5095032;28;21006;-63
2023/04/06 00:58:58;;;;;;;0.00;0.00;;;0.90;98.60;;;;;;5095051;28;20212;-63
2023/04/06 01:01:24;;;;;;;0.00;0.00;;;0.90;98.60;;;;;;5094286;28;20661;-63
2023/04/06 01:03:51;;;;;;;0.10;0.10;;;1.00;98.70;;;;;;5074396;28;20655;-63
2023/04/06 01:06:17;;;;;;;0.00;0.00;;;1.00;98.80;;;;;;5056660;28;20569;-63
2023/04/06 01:08:42;;;;;;;0.00;0.00;;;0.90;98.80;;;;;;5074654;28;20168;-63
2023/04/06 01:11:08;;;;;;;0.00;0.00;;;0.90;99.00;;;;;;5074764;28;20246;-63
2023/04/06 01:13:33;;;;;;;0.00;0.00;;;1.00;99.10;;;;;;5074419;28;20241;-63
2023/04/06 01:15:59;;;;;;;0.00;0.00;;;1.00;99.00;;;;;;5074583;28;20629;-63
2023/04/06 01:18:28;;;;;;;0.00;0.00;;;1.00;98.80;;;;;;5074417;28;20176;-64
2023/04/06 01:20:54;;;;;;;0.00;0.00;;;1.00;99.10;;;;;;5074124;28;20181;-64
2023/04/06 01:23:20;;;;;;;0.00;0.00;;;1.00;99.40;;;;;;5074495;28;20196;-64
2023/04/06 01:25:45;;;;;;;0.00;0.00;;;1.00;99.50;;;;;;5074302;28;20291;-64
2023/04/06 01:28:11;;;;;;;0.00;0.00;;;1.00;99.40;;;;;;5074223;28;20745;-65
2023/04/06 01:30:36;;;;;;;0.00;0.00;;;1.00;99.50;;;;;;5074124;28;20181;-65
2023/04/06 01:33:02;;;;;;;0.03;0.03;;;1.00;99.60;;;;;;5080192;28;20203;-64
2023/04/06 01:35:28;;;;;;;0.00;0.00;;;1.00;99.50;;;;;;5094308;28;20184;-64
2023/04/06 01:37:54;;;;;;;0.00;0.00;;;1.10;99.50;;;;;;5094262;28;20184;-64
2023/04/06 01:40:20;;;;;;;0.00;0.00;;;1.10;99.30;;;;;;5093876;28;20677;-64
2023/04/06 01:42:46;;;;;;;0.00;0.00;;;1.10;99.30;;;;;;5093341;28;20180;-64
2023/04/06 01:45:11;;;;;;;1.27;0.63;;;1.20;99.40;;;;;;5093445;28;20190;-64
2023/04/06 01:47:37;;;;;;;0.00;0.00;;;1.20;99.70;;;;;;5093497;28;20538;-64
2023/04/06 01:50:05;;;;;;;0.00;0.00;;;1.40;99.90;;;;;;5093655;28;20195;-64
2023/04/06 01:52:31;;;;;;;0.00;0.00;;;1.40;99.90;;;;;;5093350;28;20185;-64
2023/04/06 01:54:57;;;;;;;0.00;0.00;;;1.40;99.90;;;;;;5093613;28;20587;-64
2023/04/06 01:57:22;;;;;;;0.00;0.00;;;1.40;99.90;;;;;;5093355;28;20242;-64
2023/04/06 01:59:48;;;;;;;0.00;0.00;;;1.40;99.90;;;;;;5092264;28;20223;-64
2023/04/06 02:02:13;;;;;;;0.10;0.10;;;1.50;99.90;;;;;;5074191;28;20183;-64
2023/04/06 02:04:39;;;;;;;0.00;0.00;;;1.50;99.90;;;;;;5093459;28;20554;-64
2023/04/06 02:07:04;;;;;;;0.00;0.00;;;1.60;99.90;;;;;;5092654;28;20265;-64
2023/04/06 02:09:30;;;;;;;0.00;0.00;;;1.60;99.90;;;;;;5093258;28;20225;-64
2023/04/06 02:11:56;;;;;;;0.00;0.00;;;1.70;99.90;;;;;;5074265;28;20192;-64
2023/04/06 02:14:26;;;;;;;0.00;0.00;;;1.70;99.90;;;;;;5084082;28;20200;-64
2023/04/06 02:16:52;;;;;;;0.00;0.00;;;1.70;99.90;;;;;;5093500;28;20767;-65
2023/04/06 02:19:17;;;;;;;0.00;0.00;;;1.70;99.90;;;;;;5093407;28;20562;-65
2023/04/06 02:21:43;;;;;;;0.35;0.20;;;1.70;99.90;;;;;;5075062;28;20258;-65
2023/04/06 02:24:08;;;;;;;0.00;0.00;;;1.80;99.90;;;;;;5093637;28;20184;-65
2023/04/06 02:26:34;;;;;;;0.00;0.00;;;1.80;99.90;;;;;;5092947;28;20212;-65
2023/04/06 02:29:01;;;;;;;0.00;0.00;;;1.80;99.90;;;;;;5092964;28;20517;-64
2023/04/06 02:31:26;;;;;;;0.55;0.35;;;1.90;99.90;;;;;;5092894;28;20520;-64
2023/04/06 02:33:52;;;;;;;0.00;0.00;;;1.90;99.90;;;;;;5092783;28;20225;-62
2023/04/06 02:36:17;;;;;;;0.00;0.00;;;1.90;99.90;;;;;;5092857;28;20176;-62
2023/04/06 02:38:43;;;;;;;0.00;0.00;;;1.90;99.90;;;;;;5072639;28;20217;-65
2023/04/06 02:41:09;;;;;;;0.00;0.00;;;1.90;99.90;;;;;;5072686;28;20651;-64
2023/04/06 02:43:34;;;;;;;0.00;0.00;;;1.90;99.90;;;;;;5072545;28;20173;-62
2023/04/06 02:46:00;;;;;;;0.00;0.00;;;1.90;99.90;;;;;;5088498;28;20191;-62
2023/04/06 02:48:25;;;;;;;0.00;0.00;;;1.80;99.90;;;;;;5092872;28;20172;-63
2023/04/06 02:50:51;;;;;;;0.10;0.10;;;1.80;99.90;;;;;;5092945;28;20171;-62
2023/04/06 02:53:16;;;;;;;0.00;0.00;;;1.80;99.90;;;;;;5093092;28;20582;-64
2023/04/06 02:55:42;;;;;;;0.00;0.00;;;1.80;99.90;;;;;;5092935;28;20226;-65
2023/04/06 02:58:07;;;;;;;0.00;0.00;;;1.80;99.90;;;;;;5092999;28;20184;-64
2023/04/06 03:00:33;;;;;;;0.00;0.00;;;1.80;99.90;;;;;;5092630;28;20298;-62
2023/04/06 03:02:59;;;;;;;0.43;0.43;;;1.80;99.90;;;;;;5089275;28;20176;-62
2023/04/06 03:05:24;;;;;;;0.00;0.00;;;1.80;99.90;;;;;;5092628;28;20176;-64
2023/04/06 03:07:50;;;;;;;0.00;0.00;;;1.80;99.90;;;;;;5092047;28;20527;-64
2023/04/06 03:10:15;;;;;;;0.00;0.00;;;1.80;99.90;;;;;;5092297;28;20182;-64
2023/04/06 03:12:41;;;;;;;0.00;0.00;;;1.80;99.90;;;;;;5091470;28;20700;-63
2023/04/06 03:15:07;;;;;;;0.00;0.00;;;1.70;99.90;;;;;;5091895;28;20582;-63
2023/04/06 03:17:33;;;;;;;0.00;0.00;;;1.70;99.90;;;;;;5091396;28;20195;-63
2023/04/06 03:19:59;;;;;;;0.17;0.17;;;1.70;99.90;;;;;;5091791;28;20670;-64
2023/04/06 03:22:24;;;;;;;0.00;0.00;;;1.70;99.90;;;;;;5092020;28;20189;-64
2023/04/06 03:24:50;;;;;;;0.00;0.00;;;1.70;99.90;;;;;;5092226;28;20180;-64
2023/04/06 03:27:15;;;;;;;0.28;0.28;;;1.70;99.90;;;;;;5091373;28;21477;-64
2023/04/06 03:29:41;;;;;;;0.20;0.20;;;1.70;99.90;;;;;;5091370;28;20694;-65
2023/04/06 03:32:06;;;;;;;0.00;0.00;;;1.70;99.90;;;;;;5091821;28;20204;-65
2023/04/06 03:34:32;;;;;;;0.00;0.00;;;1.70;99.90;;;;;;5091844;28;20168;-64
2023/04/06 03:36:57;;;;;;;0.00;0.00;;;1.70;99.90;;;;;;5091309;28;20658;-61
2023/04/06 03:39:23;;;;;;;0.00;0.00;;;1.60;99.90;;;;;;5090903;28;20220;-62
2023/04/06 03:41:49;;;;;;;0.00;0.00;;;1.60;99.90;;;;;;5091147;28;20164;-64
2023/04/06 03:44:14;;;;;;;0.00;0.00;;;1.60;99.90;;;;;;5091079;28;20203;-59
2023/04/06 03:46:40;;;;;;;0.00;0.00;;;1.50;99.90;;;;;;5091395;28;20172;-61
2023/04/06 03:49:05;;;;;;;0.00;0.00;;;1.50;99.90;;;;;;5091356;28;20695;-60
2023/04/06 03:51:31;;;;;;;0.00;0.00;;;1.50;99.90;;;;;;5090531;28;20175;-62
2023/04/06 03:53:56;;;;;;;0.00;0.00;;;1.40;99.90;;;;;;5091096;28;20176;-60
2023/04/06 03:56:22;;;;;;;0.00;0.00;;;1.40;99.90;;;;;;5091452;28;20211;-66
2023/04/06 03:58:50;;;;;;;0.00;0.00;;;1.30;99.90;;;;;;5091243;28;20263;-61
2023/04/06 04:01:17;;;;;;;0.00;0.00;;;1.30;99.90;;;;;;5091326;28;20191;-60
2023/04/06 04:03:43;;;;;;;0.00;0.00;;;1.30;99.90;;;;;;5091088;28;20266;-61
2023/04/06 04:06:09;;;;;;;0.00;0.00;;;1.20;99.90;;;;;;5090135;28;20754;-61
2023/04/06 04:08:35;;;;;;;0.00;0.00;;;1.20;99.90;;;;;;5089038;28;20662;-61
2023/04/06 04:11:01;;;;;;;0.00;0.00;;;1.20;99.90;;;;;;5073336;28;20587;-61
2023/04/06 04:13:26;;;;;;;0.00;0.00;;;1.20;99.90;;;;;;5091423;28;20236;-61
2023/04/06 04:15:52;;;;;;;0.08;0.08;;;1.10;99.90;;;;;;5090769;28;20713;-61
2023/04/06 04:18:18;;;;;;;0.10;0.10;;;1.10;99.90;;;;;;5090961;28;20215;-61
2023/04/06 04:20:44;;;;;;;0.00;0.00;;;1.00;99.90;;;;;;5090616;28;20714;-61
2023/04/06 04:23:09;;;;;;;0.00;0.00;;;1.00;99.90;;;;;;5090179;28;20583;-61
2023/04/06 04:25:35;;;;;;;0.00;0.00;;;1.00;99.90;;;;;;5090895;28;20168;-62
2023/04/06 04:28:01;;;;;;;0.00;0.00;;;0.90;99.90;;;;;;5072989;28;20326;-62
2023/04/06 04:30:26;;;;;;;0.10;0.10;;;0.90;99.90;;;;;;5091241;28;20609;-60
2023/04/06 04:32:52;;;;;;;0.00;0.00;;;0.90;99.90;;;;;;5090882;28;20175;-60
2023/04/06 04:35:17;;;;;;;0.00;0.00;;;0.90;99.90;;;;;;5078063;28;20230;-61
2023/04/06 04:37:43;;;;;;;0.00;0.00;;;0.90;99.90;;;;;;5070324;28;20188;-60
2023/04/06 04:40:09;;;;;;;0.40;0.40;;;0.80;99.90;;;;;;5070121;28;20216;-60
2023/04/06 04:42:35;;;;;;;0.00;0.00;;;0.80;99.90;;;;;;5070103;28;20643;-60
2023/04/06 04:45:00;;;;;;;0.00;0.00;;;0.80;99.90;;;;;;5074206;28;20267;-60
2023/04/06 04:47:26;;;;;;;0.00;0.00;;;0.70;99.90;;;;;;5090481;28;20172;-61
2023/04/06 04:49:51;;;;;;;0.10;0.10;;;0.70;99.90;;;;;;5090616;28;20176;-60
2023/04/06 04:52:17;;;;;;;0.00;0.00;;;0.70;99.90;;;;;;5090813;28;20229;-60
2023/04/06 04:54:42;;;;;;;0.20;0.05;;;0.70;99.90;;;;;;5090745;28;20188;-60
2023/04/06 04:57:08;;;;;;;0.10;0.10;;;0.70;99.90;;;;;;5090814;28;20179;-60
2023/04/06 04:59:35;;;;;;;0.00;0.00;;;0.60;99.90;;;;;;5090491;28;20211;-60
2023/04/06 05:02:00;;;;;;;0.00;0.00;;;0.60;99.90;;;;;;5090700;28;20172;-60
2023/04/06 05:04:26;;;;;;;0.00;0.00;;;0.60;99.90;;;;;;5090693;28;20539;-61
2023/04/06 05:07:03;;;;;;;0.00;0.00;;;0.70;99.90;;;;;;5090553;28;20242;-60
2023/04/06 05:09:30;;;;;;;0.00;0.00;;;0.70;99.90;;;;;;5090324;28;20537;-61
2023/04/06 05:11:56;;;;;;;0.08;0.08;;;0.70;99.90;;;;;;5090215;28;20180;-61
2023/04/06 05:14:21;;;;;;;0.00;0.00;;;0.70;99.90;;;;;;5090124;28;20237;-61
2023/04/06 05:16:47;;;;;;;0.03;0.03;;;0.70;99.90;;;;;;5090214;28;20708;-60
2023/04/06 05:19:12;;;;;;;0.38;0.30;;;0.70;99.90;;;;;;5090128;28;20239;-60
2023/04/06 05:21:38;;;;;;;0.00;0.00;;;0.80;99.90;;;;;;5090073;28;20586;-60
2023/04/06 05:24:03;;;;;;;0.00;0.00;;;0.80;99.90;;;;;;5090050;28;20172;-60
2023/04/06 05:26:29;;;;;;;0.15;0.15;;;0.80;99.90;;;;;;5089652;28;20211;-60
2023/04/06 05:28:54;;;;;;;0.00;0.00;;;0.90;99.90;;;;;;5089850;28;20192;-60
2023/04/06 05:31:20;;;;;;;0.00;0.00;;;0.90;99.90;;;;;;5090138;28;20182;-60
2023/04/06 05:33:46;;;;;;;0.00;0.00;;;1.00;99.90;;;;;;5089778;28;20172;-60
2023/04/06 05:36:11;;;;;;;0.00;0.00;;;1.00;99.90;;;;;;5092553;28;20176;-61
2023/04/06 05:38:37;;;;;;;0.00;0.00;;;1.10;99.90;;;;;;5093334;28;20250;-60
2023/04/06 05:41:02;;;;;;;0.00;0.00;;;1.10;99.90;;;;;;5093885;28;20169;-60
2023/04/06 05:43:28;;;;;;;0.00;0.00;;;1.20;99.90;;;;;;5093787;28;20239;-60
2023/04/06 05:45:54;;;;;;;0.00;0.00;;;1.30;99.90;;;;;;5093476;28;20527;-61
2023/04/06 05:48:19;;;;;;;0.00;0.00;;;1.40;99.90;;;;;;5093810;28;20176;-60
2023/04/06 05:50:49;;;;;;;0.00;0.00;;;1.50;99.90;;;;;;5093716;28;20654;-61
2023/04/06 05:53:15;;;;;;;0.10;0.10;;;1.60;99.90;;;;;;5093725;28;20207;-62
2023/04/06 05:55:41;;;;;;;0.00;0.00;;;1.70;99.90;;;;;;5093460;28;20172;-60
2023/04/06 05:58:06;;;;;;;0.00;0.00;;;1.90;99.90;;;;;;5093428;28;20187;-60
2023/04/06 06:00:32;;;;;;;0.00;0.00;;;2.00;99.90;;;;;;5093035;28;20215;-59
2023/04/06 06:02:58;;;;;;;0.00;0.00;;;2.20;99.90;;;;;;5093060;28;20213;-61
2023/04/06 06:05:24;;;;;;;0.00;0.00;;;2.40;99.90;;;;;;5093493;28;20312;-61
2023/04/06 06:07:50;;;;;;;0.10;0.10;;;2.60;99.90;;;;;;5088873;28;20241;-61
2023/04/06 06:10:15;;;;;;;0.00;0.00;;;2.80;99.90;;;;;;5073100;28;20180;-61
2023/04/06 06:12:41;;;;;;;0.00;0.00;;;3.10;99.90;;;;;;5054983;28;20173;-61
2023/04/06 06:15:07;;;;;;;0.00;0.00;;;3.40;99.90;;;;;;5072876;28;20256;-61
2023/04/06 06:17:32;;;;;;;0.00;0.00;;;3.80;99.90;;;;;;5072680;28;20253;-61
2023/04/06 06:19:58;;;;;;;0.00;0.00;;;4.20;99.90;;;;;;5072939;28;20355;-61
2023/04/06 06:22:23;;;;;;;0.00;0.00;;;4.70;99.90;;;;;;5072916;28;20221;-61
2023/04/06 06:24:50;;;;;;;0.00;0.00;;;5.30;99.60;;;;;;5072808;28;20520;-60
2023/04/06 06:27:15;;;;;;;0.00;0.00;;;5.90;98.70;;;;;;5072500;28;20221;-61
2023/04/06 06:29:41;;;;;;;0.22;0.08;;;6.50;97.50;;;;;;5072619;28;20179;-60
2023/04/06 06:32:08;;;;;;;0.00;0.00;;;6.90;95.90;;;;;;5072611;28;20623;-61
2023/04/06 06:34:35;;;;;;;0.00;0.00;;;7.40;94.70;;;;;;5072395;28;20665;-60
2023/04/06 06:37:02;;;;;;;0.00;0.00;;;7.90;93.20;;;;;;5072571;28;20183;-61
2023/04/06 06:39:28;;;;;;;0.00;0.00;;;8.20;91.80;;;;;;5072384;28;20291;-61
2023/04/06 06:41:55;;;;;;;0.17;0.17;;;8.50;90.70;;;;;;5072216;28;20552;-61
2023/04/06 06:44:21;;;;;;;0.00;0.00;;;8.70;89.80;;;;;;5072397;28;20176;-61
2023/04/06 06:46:47;;;;;;;0.00;0.00;;;9.10;88.40;;;;;;5090668;28;20512;-60
2023/04/06 06:49:14;;;;;;;0.00;0.00;;;9.20;85.80;;;;;;5092442;28;20174;-61
2023/04/06 06:51:39;;;;;;;0.00;0.00;;;9.30;84.00;;;;;;5092678;28;20259;-61
2023/04/06 06:54:05;;;;;;;0.00;0.00;;;9.50;83.10;;;;;;5092664;28;20251;-61
2023/04/06 06:56:31;;;;;;;0.00;0.00;;;9.70;81.50;;;;;;5092645;28;20206;-61
2023/04/06 06:58:56;;;;;;;0.00;0.00;;;9.90;80.30;;;;;;5092615;28;20671;-60
2023/04/06 07:01:22;;;;;;;0.00;0.00;;;10.20;78.50;;;;;;5074602;28;20195;-61
2023/04/06 07:03:47;;;;;;;0.00;0.00;;;10.50;75.60;;;;;;5092603;28;20191;-61
2023/04/06 07:06:13;;;;;;;0.00;0.00;;;10.70;74.80;;;;;;5092477;28;20558;-61
2023/04/06 07:08:38;;;;;;;0.00;0.00;;;11.00;74.00;;;;;;5081518;28;20222;-60
2023/04/06 07:11:04;;;;;;;0.00;0.00;;;11.40;71.60;;;;;;5072172;28;20601;-61
2023/04/06 07:13:30;;;;;;;0.00;0.00;;;11.70;70.60;;;;;;5072085;28;20234;-61
2023/04/06 07:15:55;;;;;;;0.00;0.00;;;12.00;69.70;;;;;;5072116;28;20259;-61
2023/04/06 07:18:22;;;;;;;0.00;0.00;;;12.50;67.20;;;;;;5072076;28;20175;-61
2023/04/06 07:20:47;;;;;;;0.00;0.00;;;12.70;65.20;;;;;;5071853;28;20212;-61
2023/04/06 07:23:13;;;;;;;0.00;0.00;;;13.10;64.30;;;;;;5071863;28;20176;-61
2023/04/06 07:25:38;;;;;;;0.00;0.00;;;13.30;61.90;;;;;;5071827;28;20181;-61
2023/04/06 07:28:04;;;;;;;0.00;0.00;;;13.40;61.70;;;;;;5071736;28;20307;-61
2023/04/06 07:30:30;;;;;;;0.00;0.00;;;13.60;60.60;;;;;;5071625;28;20208;-61
2023/04/06 07:32:56;;;;;;;0.10;0.10;;;13.90;59.80;;;;;;5071824;28;20204;-61
2023/04/06 07:35:26;;;;;;;0.10;0.10;;;14.10;58.80;;;;;;5071730;28;20177;-61
2023/04/06 07:37:52;;;;;;;0.00;0.00;;;14.50;58.20;;;;;;5071580;28;20160;-61
2023/04/06 07:40:19;;;;;;;0.08;0.08;;;14.90;56.90;;;;;;5071639;28;20212;-61
2023/04/06 07:42:45;;;;;;;0.10;0.10;;;15.10;55.90;;;;;;5071524;28;20264;-61
2023/04/06 07:45:10;;;;;;;0.00;0.00;;;15.50;55.00;;;;;;5077197;28;20318;-61
2023/04/06 07:47:36;;;;;;;0.00;0.00;;;15.80;53.60;;;;;;5091566;28;20183;-61
2023/04/06 07:50:01;;;;;;;0.00;0.00;;;16.10;52.30;;;;;;5091690;28;20526;-61
2023/04/06 07:52:27;;;;;;;0.00;0.00;;;16.40;50.40;;;;;;5091678;28;20206;-62
2023/04/06 07:54:52;;;;;;;0.00;0.00;;;16.60;48.80;;;;;;5091456;28;20191;-61
2023/04/06 07:57:18;;;;;;;0.00;0.00;;;16.90;47.30;;;;;;5092029;28;20200;-61
2023/04/06 07:59:44;;;;;;;0.00;0.00;;;17.00;46.00;;;;;;5091515;28;20220;-61
2023/04/06 08:02:09;;;;;;;0.00;0.00;;;17.30;46.70;;;;;;5091397;28;20176;-61
2023/04/06 08:04:36;;;;;;;0.00;0.00;;;17.40;45.70;;;;;;5091392;28;20207;-61
2023/04/06 08:07:01;;;;;;;0.00;0.00;;;17.40;45.50;;;;;;5091529;28;20213;-61
2023/04/06 08:09:27;;;;;;;0.00;0.00;;;17.70;45.30;;;;;;5073668;28;20204;-61
2023/04/06 08:11:53;;;;;;;0.00;0.00;;;17.90;44.30;;;;;;5071054;28;20173;-61
2023/04/06 08:14:18;;;;;;;0.00;0.00;;;18.10;44.10;;;;;;5071304;28;20582;-61
2023/04/06 08:16:44;;;;;;;0.05;0.05;;;18.10;43.70;;;;;;5071109;28;20650;-61
2023/04/06 08:19:11;;;;;;;0.00;0.00;;;18.20;43.10;;;;;;5070879;28;20208;-61
2023/04/06 08:21:36;;;;;;;0.00;0.00;;;18.40;42.70;;;;;;5070999;28;20181;-61
2023/04/06 08:24:02;;;;;;;0.00;0.00;;;18.50;42.60;;;;;;5071069;28;20176;-61
2023/04/06 08:26:28;;;;;;;0.00;0.00;;;18.60;42.70;;;;;;5070843;28;20232;-61
2023/04/06 08:28:54;;;;;;;0.00;0.00;;;18.70;41.40;;;;;;5070896;28;20175;-61
2023/04/06 08:31:19;;;;;;;0.13;0.13;;;18.70;40.30;;;;;;5071005;28;20176;-61
2023/04/06 08:33:45;;;;;;;0.00;0.00;;;18.80;41.50;;;;;;5070792;28;20643;-61
2023/04/06 08:36:14;;;;;;;0.00;0.00;;;18.90;43.20;;;;;;5070703;28;20234;-61
2023/04/06 08:38:41;;;;;;;0.00;0.00;;;19.20;42.50;;;;;;5070769;28;20191;-61
2023/04/06 08:41:11;;;;;;;0.22;0.22;;;19.30;42.80;;;;;;5070814;28;20189;-62
2023/04/06 08:44:00;;;;;;;0.00;0.00;;;19.10;43.00;;;;;;5070819;28;20179;-61
2023/04/06 08:46:29;;;;;;;0.00;0.00;;;19.20;44.10;;;;;;5078918;28;20245;-61
2023/04/06 08:48:59;;;;;;;0.00;0.00;;;19.30;44.40;;;;;;5090942;28;20263;-61
2023/04/06 08:51:28;;;;;;;0.10;0.10;;;19.20;44.20;;;;;;5090947;28;20184;-61
2023/04/06 08:53:55;;;;;;;0.00;0.00;;;19.20;44.80;;;;;;5090769;28;20263;-61
2023/04/06 08:56:28;;;;;;;0.00;0.00;;;19.30;44.50;;;;;;5090875;28;20207;-61
2023/04/06 08:58:55;;;;;;;0.25;0.25;;;19.50;43.70;;;;;;5090629;28;20255;-61
2023/04/06 09:01:33;;;;;;;0.00;0.00;;;19.60;43.70;;;;;;5090824;28;20247;-61
2023/04/06 09:04:04;;;;;;;0.00;0.00;;;19.50;44.10;;;;;;5090796;28;20190;-61
2023/04/06 09:06:30;;;;;;;0.00;0.00;;;19.60;44.20;;;;;;5072654;28;20553;-61
2023/04/06 09:08:57;;;;;;;0.00;0.00;;;19.80;44.50;;;;;;5077387;28;20237;-61
2023/04/06 09:11:23;;;;;;;0.00;0.00;;;19.90;42.40;;;;;;5073962;28;20184;-61
2023/04/06 09:13:50;;;;;;;0.00;0.00;;;19.90;42.60;;;;;;5074429;28;20369;-61
2023/04/06 09:16:17;;;;;;;0.00;0.00;;;19.70;42.20;;;;;;5074571;28;20172;-60
2023/04/06 09:18:43;;;;;;;0.08;0.08;;;19.70;44.20;;;;;;5074364;28;20181;-60
2023/04/06 09:21:09;;;;;;;0.00;0.00;;;19.70;43.50;;;;;;5074397;28;20181;-61
2023/04/06 09:23:34;;;;;;;0.10;0.10;;;19.70;43.90;;;;;;5074230;28;20283;-61
2023/04/06 09:26:15;;;;;;;0.00;0.00;;;19.60;42.20;;;;;;5074315;28;20181;-61
2023/04/06 09:28:57;;;;;;;0.10;0.10;;;19.70;42.10;;;;;;5074098;28;20663;-61
2023/04/06 09:31:25;;;;;;;0.00;0.00;;;19.50;41.40;;;;;;5074492;28;20201;-61
2023/04/06 09:33:54;;;;;;;0.00;0.00;;;19.00;40.10;;;;;;5074122;28;20507;-61
2023/04/06 09:36:29;;;;;;;0.00;0.00;;;18.70;39.90;;;;;;5074285;28;20171;-61
2023/04/06 09:39:00;;;;;;;0.00;0.00;;;18.90;39.90;;;;;;5074038;28;20816;-61
2023/04/06 09:41:27;;;;;;;0.00;0.00;;;18.90;40.10;;;;;;5074152;28;20531;-60
2023/04/06 09:44:11;;;;;;;0.00;0.00;;;19.00;39.60;;;;;;5073984;28;20199;-61
2023/04/06 09:46:39;;;;;;;0.00;0.00;;;18.70;39.50;;;;;;5091755;28;20168;-62
2023/04/06 09:49:05;;;;;;;0.00;0.00;;;18.50;40.20;;;;;;5094207;28;20275;-61
2023/04/06 09:51:58;;;;;;;0.00;0.00;;;18.50;40.60;;;;;;5094160;28;20584;-61
2023/04/06 09:54:27;;;;;;;0.00;0.00;;;18.60;39.00;;;;;;5080848;28;20313;-62
2023/04/06 09:57:19;;;;;;;0.00;0.00;;;18.90;39.80;;;;;;5094000;28;20255;-60
2023/04/06 10:00:10;;;;;;;0.00;0.00;;;19.10;39.20;;;;;;5075800;28;20211;-61
2023/04/06 10:02:55;;;;;;;0.00;0.00;;;18.80;37.50;;;;;;5094049;28;20545;-61
2023/04/06 10:05:39;;;;;;;0.00;0.00;;;18.60;36.50;;;;;;5094097;28;20650;-61
2023/04/06 10:08:08;;;;;;;0.00;0.00;;;18.60;36.00;;;;;;5087759;28;20682;-62
2023/04/06 10:10:34;;;;;;;0.08;0.08;;;18.90;36.10;;;;;;5073394;28;20263;-61
2023/04/06 10:13:00;;;;;;;0.00;0.00;;;19.10;37.50;;;;;;5073552;28;20261;-62
2023/04/06 10:15:29;;;;;;;0.00;0.00;;;19.30;37.60;;;;;;5073514;28;20191;-62
2023/04/06 10:17:55;;;;;;;0.10;0.10;;;19.50;37.40;;;;;;5073360;28;20623;-61
2023/04/06 10:20:44;;;;;;;0.00;0.00;;;19.60;38.50;;;;;;5073532;28;20212;-61
2023/04/06 10:23:22;;;;;;;0.00;0.00;;;19.30;38.90;;;;;;5072542;28;20230;-61
2023/04/06 10:25:58;;;;;;;0.00;0.00;;;19.40;38.20;;;;;;5073321;28;20261;-61
2023/04/06 10:28:25;;;;;;;0.00;0.00;;;19.40;38.50;;;;;;5073139;28;20224;-61
2023/04/06 10:30:57;;;;;;;0.00;0.00;;;19.40;38.00;;;;;;5073083;28;20211;-61
2023/04/06 10:33:22;;;;;;;0.00;0.00;;;19.00;38.00;;;;;;5073371;28;20552;-61
2023/04/06 10:35:48;;;;;;;0.10;0.10;;;18.70;36.50;;;;;;5073182;28;20515;-61
2023/04/06 10:38:14;;;;;;;0.00;0.00;;;18.70;36.80;;;;;;5073126;28;20173;-61
2023/04/06 10:40:46;;;;;;;0.00;0.00;;;18.80;36.70;;;;;;5072823;28;20710;-61
2023/04/06 10:43:17;;;;;;;0.00;0.00;;;18.90;37.50;;;;;;5072941;28;20535;-61
2023/04/06 10:45:43;;;;;;;0.00;0.00;;;19.30;37.50;;;;;;5083129;28;20180;-61
2023/04/06 10:48:19;;;;;;;0.00;0.00;;;19.50;37.70;;;;;;5093138;28;20375;-61
2023/04/06 10:50:52;;;;;;;0.00;0.00;;;19.70;36.40;;;;;;5074883;28;20207;-61
2023/04/06 10:53:22;;;;;;;0.00;0.00;;;20.00;36.50;;;;;;5092986;28;20505;-61
2023/04/06 10:55:50;;;;;;;0.00;0.00;;;20.30;35.40;;;;;;5092484;28;20187;-61
2023/04/06 10:58:16;;;;;;;0.10;0.10;;;20.40;36.40;;;;;;5091937;28;20172;-61
2023/04/06 11:00:49;;;;;;;0.00;0.00;;;20.30;35.60;;;;;;5091359;28;20551;-61
2023/04/06 11:03:15;;;;;;;0.00;0.00;;;20.50;36.10;;;;;;5074724;28;20180;-61
2023/04/06 11:05:48;;;;;;;0.30;0.30;;;20.40;34.10;;;;;;5092387;28;20262;-61
2023/04/06 11:08:28;;;;;;;0.00;0.00;;;20.40;34.60;;;;;;5086139;28;20643;-61
2023/04/06 11:11:15;;;;;;;0.00;0.00;;;20.10;34.00;;;;;;5072419;28;20177;-62
2023/04/06 11:13:42;;;;;;;0.00;0.00;;;20.10;33.30;;;;;;5076085;28;20570;-62
2023/04/06 11:16:19;;;;;;;0.00;0.00;;;20.00;33.30;;;;;;5091971;28;20214;-62
2023/04/06 11:18:56;;;;;;;0.00;0.00;;;20.10;34.30;;;;;;5072216;28;20169;-62
2023/04/06 11:21:48;;;;;;;0.00;0.00;;;20.30;33.50;;;;;;5089581;28;20187;-61
2023/04/06 11:24:23;;;;;;;0.00;0.00;;;20.10;33.50;;;;;;5063684;28;20738;-62
2023/04/06 11:26:56;;;;;;;0.00;0.00;;;20.00;35.60;;;;;;5092272;28;20215;-61
2023/04/06 11:29:33;;;;;;;0.00;0.00;;;20.00;35.40;;;;;;5091982;28;20183;-60
2023/04/06 11:32:06;;;;;;;0.50;0.40;;;20.10;34.30;;;;;;5092332;28;20247;-61
2023/04/06 11:34:40;;;;;;;0.00;0.00;;;19.70;33.60;;;;;;5091730;28;20191;-62
2023/04/06 11:37:10;;;;;;;0.00;0.00;;;19.30;33.20;;;;;;5092068;28;20642;-62
2023/04/06 11:39:43;;;;;;;0.10;0.08;;;18.90;33.80;;;;;;5092053;28;20223;-61
2023/04/06 11:42:09;;;;;;;0.00;0.00;;;18.80;34.10;;;;;;5092063;28;20648;-62
2023/04/06 11:44:35;;;;;;;0.00;0.00;;;18.90;35.20;;;;;;5091910;28;20237;-62
2023/04/06 11:47:02;;;;;;;0.00;0.00;;;18.80;35.10;;;;;;5092039;28;20176;-61
2023/04/06 11:49:29;;;;;;;0.00;0.00;;;18.60;36.50;;;;;;5091930;28;20179;-61
2023/04/06 11:51:55;;;;;;;0.10;0.10;;;18.70;35.90;;;;;;5091857;28;20252;-61
2023/04/06 11:54:34;;;;;;;0.00;0.00;;;18.60;35.20;;;;;;5091302;28;20570;-62
2023/04/06 11:57:01;;;;;;;0.00;0.00;;;18.60;35.90;;;;;;5091771;28;20591;-62
2023/04/06 11:59:27;;;;;;;0.00;0.00;;;18.80;36.00;;;;;;5091215;28;20200;-62
2023/04/06 12:01:53;;;;;;;0.00;0.00;;;18.70;35.00;;;;;;5091135;28;20578;-62
2023/04/06 12:04:19;;;;;;;0.00;0.00;;;18.90;34.90;;;;;;5091850;28;20194;-62
2023/04/06 12:06:45;;;;;;;0.00;0.00;;;18.90;35.40;;;;;;5091104;28;20237;-61
2023/04/06 12:09:10;;;;;;;0.00;0.00;;;19.00;35.00;;;;;;5090180;28;20180;-61
2023/04/06 12:11:36;;;;;;;0.00;0.00;;;18.40;34.10;;;;;;5091502;28;20643;-61
2023/04/06 12:14:04;;;;;;;0.00;0.00;;;18.10;33.70;;;;;;5091361;28;20190;-62
2023/04/06 12:16:30;;;;;;;0.00;0.00;;;18.20;34.60;;;;;;5090562;28;20255;-62
2023/04/06 12:18:56;;;;;;;0.20;0.20;;;18.40;35.20;;;;;;5091317;28;20537;-62
2023/04/06 12:21:21;;;;;;;0.00;0.00;;;18.60;35.10;;;;;;5091419;28;20176;-61
2023/04/06 12:23:47;;;;;;;0.22;0.22;;;18.80;34.40;;;;;;5091178;28;20169;-62
2023/04/06 12:26:13;;;;;;;0.00;0.00;;;18.90;35.00;;;;;;5091210;28;20176;-61
2023/04/06 12:28:38;;;;;;;0.00;0.00;;;19.00;35.20;;;;;;5090779;28;20286;-62
2023/04/06 12:31:04;;;;;;;0.00;0.00;;;19.20;35.00;;;;;;5091129;28;20515;-61
2023/04/06 12:33:29;;;;;;;0.00;0.00;;;19.40;35.00;;;;;;5091094;28;20677;-62
2023/04/06 12:35:55;;;;;;;0.00;0.00;;;19.40;34.60;;;;;;5091160;28;20254;-61
2023/04/06 12:38:21;;;;;;;0.00;0.00;;;19.60;34.80;;;;;;5091281;28;20176;-62
2023/04/06 12:40:46;;;;;;;0.13;0.13;;;19.80;35.10;;;;;;5090928;28;20230;-61
2023/04/06 12:43:13;;;;;;;0.00;0.00;;;19.20;33.80;;;;;;5091250;28;20176;-61
2023/04/06 12:45:40;;;;;;;0.00;0.00;;;18.70;34.40;;;;;;5089627;28;20665;-61
2023/04/06 12:48:06;;;;;;;0.00;0.00;;;18.10;34.80;;;;;;5087405;28;20180;-61
2023/04/06 12:50:31;;;;;;;0.00;0.00;;;17.50;36.00;;;;;;5090519;28;20268;-61
2023/04/06 12:52:57;;;;;;;0.00;0.00;;;16.70;36.60;;;;;;5091143;28;20168;-61